createdAt,value
2018-11-29T00:04:12.823Z,7.47
2018-11-29T00:09:35.617Z,7.73
2018-11-29T00:14:54.357Z,7.27
2018-11-29T00:20:14.972Z,7.70
2018-11-29T00:25:33.485Z,7.20
2018-11-29T00:30:52.373Z,7.73
2018-11-29T00:36:11.062Z,7.07
2018-11-29T00:41:29.699Z,6.20
2018-11-29T00:46:48.233Z,6.67
2018-11-29T00:52:06.826Z,7.13
2018-11-29T00:57:25.348Z,6.27
2018-11-29T01:02:44.033Z,6.10
2018-11-29T01:08:02.693Z,6.93
2018-11-29T01:13:22.163Z,6.03
2018-11-29T01:18:40.766Z,5.97
2018-11-29T01:23:59.468Z,6.07
2018-11-29T01:29:18.403Z,6.50
2018-11-29T01:34:37.030Z,5.97
2018-11-29T01:39:57.118Z,6.07
2018-11-29T01:45:15.834Z,6.83
2018-11-29T01:50:34.833Z,6.77
2018-11-29T01:55:53.536Z,5.90
2018-11-29T02:01:12.138Z,6.40
2018-11-29T02:06:30.751Z,6.10
2018-11-29T02:11:49.309Z,6.83
2018-11-29T02:17:08.391Z,6.20
2018-11-29T02:22:27.165Z,6.45
2018-11-29T02:27:45.692Z,6.17
2018-11-29T02:33:04.304Z,6.53
2018-11-29T02:38:22.937Z,6.90
2018-11-29T02:43:42.153Z,7.03
2018-11-29T02:49:00.790Z,6.93
2018-11-29T02:54:20.001Z,7.80
2018-11-29T02:59:38.636Z,6.93
2018-11-29T03:04:59.497Z,7.83
2018-11-29T03:10:23.297Z,7.57
2018-11-29T03:15:41.951Z,8.40
2018-11-29T03:21:01.616Z,8.13
2018-11-29T03:26:20.171Z,8.00
2018-11-29T03:31:38.679Z,8.33
2018-11-29T03:36:58.120Z,8.50
2018-11-29T03:42:16.755Z,8.60
2018-11-29T03:47:35.556Z,8.30
2018-11-29T03:52:54.092Z,8.53
2018-11-29T03:58:13.221Z,10.00
2018-11-29T04:03:31.832Z,7.23
2018-11-29T04:08:50.770Z,8.33
2018-11-29T04:14:09.276Z,8.83
2018-11-29T04:19:28.014Z,8.47
2018-11-29T04:24:46.513Z,8.37
2018-11-29T04:30:08.337Z,7.95
2018-11-29T04:35:27.238Z,8.65
2018-11-29T04:40:45.798Z,8.60
2018-11-29T04:46:44.137Z,8.60
2018-11-29T04:52:02.693Z,8.57
2018-11-29T04:57:21.312Z,9.40
2018-11-29T05:02:39.922Z,9.10
2018-11-29T05:07:59.614Z,8.97
2018-11-29T05:13:18.153Z,9.10
2018-11-29T05:18:36.751Z,8.17
2018-11-29T05:23:56.217Z,9.07
2018-11-29T05:29:14.765Z,8.87
2018-11-29T05:34:33.570Z,9.63
2018-11-29T05:39:52.209Z,9.85
2018-11-29T05:45:11.604Z,10.15
2018-11-29T05:50:30.114Z,10.93
2018-11-29T05:55:48.690Z,11.33
2018-11-29T06:01:12.374Z,10.97
2018-11-29T06:06:30.945Z,11.18
2018-11-29T06:11:49.494Z,12.67
2018-11-29T06:17:08.713Z,11.33
2018-11-29T06:22:28.010Z,11.43
2018-11-29T06:27:46.694Z,11.57
2018-11-29T06:33:06.268Z,12.00
2018-11-29T06:38:24.803Z,12.20
2018-11-29T06:43:43.313Z,11.97
2018-11-29T06:49:02.722Z,12.53
2018-11-29T06:54:21.298Z,12.23
2018-11-29T06:59:39.860Z,12.13
2018-11-29T07:04:59.257Z,12.43
2018-11-29T07:10:22.670Z,11.40
2018-11-29T07:15:41.351Z,12.40
2018-11-29T07:21:11.007Z,12.50
2018-11-29T07:26:29.547Z,11.57
2018-11-29T07:31:48.175Z,11.27
2018-11-29T07:37:07.237Z,12.10
2018-11-29T07:42:26.386Z,12.43
2018-11-29T07:47:45.486Z,12.27
2018-11-29T07:53:04.051Z,11.63
2018-11-29T07:58:23.316Z,11.27
2018-11-29T08:03:42.130Z,11.53
2018-11-29T08:09:00.662Z,10.60
2018-11-29T08:14:19.191Z,10.48
2018-11-29T08:19:37.731Z,10.80
2018-11-29T08:24:56.312Z,9.37
2018-11-29T08:30:15.686Z,9.08
2018-11-29T08:35:34.161Z,8.80
2018-11-29T08:40:52.746Z,8.07
2018-11-29T08:46:11.368Z,7.67
2018-11-29T08:51:29.968Z,7.30
2018-11-29T08:56:48.540Z,6.47
2018-11-29T09:02:07.106Z,6.63
2018-11-29T09:07:25.617Z,8.20
2018-11-29T09:12:44.122Z,7.03
2018-11-29T09:18:02.636Z,6.23
2018-11-29T09:23:21.217Z,6.43
2018-11-29T09:28:39.718Z,6.40
2018-11-29T09:33:58.292Z,6.20
2018-11-29T09:39:16.850Z,6.47
2018-11-29T09:44:35.376Z,6.53
2018-11-29T09:49:53.912Z,6.37
2018-11-29T09:55:17.273Z,6.33
2018-11-29T10:00:35.866Z,6.30
2018-11-29T10:05:54.357Z,6.87
2018-11-29T10:11:12.981Z,7.40
2018-11-29T10:16:31.542Z,6.57
2018-11-29T10:21:50.082Z,7.00
2018-11-29T10:27:08.630Z,7.27
2018-11-29T10:32:27.111Z,7.97
2018-11-29T10:37:45.620Z,7.57
2018-11-29T10:43:04.736Z,6.83
2018-11-29T10:48:24.410Z,6.93
2018-11-29T10:53:43.030Z,7.63
2018-11-29T10:59:01.569Z,6.77
2018-11-29T11:04:20.078Z,7.03
2018-11-29T11:09:39.425Z,6.83
2018-11-29T11:14:57.917Z,7.83
2018-11-29T11:20:16.590Z,7.08
2018-11-29T11:25:35.214Z,8.33
2018-11-29T11:30:54.653Z,7.73
2018-11-29T11:36:13.175Z,7.00
2018-11-29T11:41:32.245Z,7.07
2018-11-29T11:46:50.742Z,6.20
2018-11-29T11:52:09.447Z,6.63
2018-11-29T11:57:27.836Z,7.23
2018-11-29T12:02:47.000Z,7.10
2018-11-29T12:08:05.700Z,6.90
2018-11-29T12:13:25.591Z,7.80
2018-11-29T12:18:45.461Z,7.33
2018-11-29T12:24:04.041Z,8.43
2018-11-29T12:29:22.571Z,8.10
2018-11-29T12:34:41.221Z,7.60
2018-11-29T12:39:59.826Z,8.47
2018-11-29T12:45:18.472Z,8.63
2018-11-29T12:50:38.715Z,8.77
2018-11-29T12:55:57.340Z,8.60
2018-11-29T13:01:16.509Z,8.73
2018-11-29T13:06:35.098Z,8.03
2018-11-29T13:11:53.748Z,7.50
2018-11-29T13:17:12.219Z,8.03
2018-11-29T13:22:30.761Z,7.70
2018-11-29T13:27:49.360Z,7.20
2018-11-29T13:33:09.328Z,8.00
2018-11-29T13:38:27.862Z,7.37
2018-11-29T13:43:47.006Z,6.83
2018-11-29T13:49:06.031Z,7.03
2018-11-29T13:54:24.600Z,7.07
2018-11-29T13:59:43.190Z,7.57
2018-11-29T14:05:01.711Z,8.20
2018-11-29T14:10:22.344Z,6.72
2018-11-29T14:15:40.858Z,7.17
2018-11-29T14:20:59.395Z,6.80
2018-11-29T14:26:17.960Z,7.20
2018-11-29T14:31:36.534Z,7.13
2018-11-29T14:36:55.124Z,5.93
2018-11-29T14:42:13.653Z,6.00
2018-11-29T14:47:32.228Z,6.60
2018-11-29T14:52:50.798Z,5.67
2018-11-29T14:58:11.725Z,6.63
2018-11-29T15:03:30.278Z,5.33
2018-11-29T15:08:48.904Z,4.77
2018-11-29T15:14:07.459Z,5.70
2018-11-29T15:19:26.028Z,5.10
2018-11-29T15:24:44.559Z,5.40
2018-11-29T15:30:05.042Z,6.17
2018-11-29T15:35:23.679Z,5.57
2018-11-29T15:40:42.220Z,5.87
2018-11-29T15:46:01.482Z,5.70
2018-11-29T15:51:19.991Z,6.05
2018-11-29T15:56:38.555Z,6.73
2018-11-29T16:01:57.093Z,5.80
2018-11-29T16:07:16.382Z,5.57
2018-11-29T16:12:34.972Z,5.77
2018-11-29T16:17:53.851Z,6.13
2018-11-29T16:23:13.206Z,6.03
2018-11-29T16:28:31.785Z,6.40
2018-11-29T16:33:50.253Z,6.23
2018-11-29T16:39:08.904Z,6.00
2018-11-29T16:44:28.313Z,6.10
2018-11-29T16:49:46.926Z,5.50
2018-11-29T16:55:08.037Z,5.80
2018-11-29T17:00:26.624Z,5.50
2018-11-29T17:05:45.164Z,5.33
2018-11-29T17:11:03.714Z,5.67
2018-11-29T17:16:22.316Z,6.20
2018-11-29T17:21:41.209Z,5.37
2018-11-29T17:26:59.887Z,6.07
2018-11-29T17:32:18.427Z,5.70
2018-11-29T17:37:37.064Z,5.37
2018-11-29T17:42:56.388Z,6.17
2018-11-29T17:48:14.976Z,6.25
2018-11-29T17:53:34.809Z,5.90
2018-11-29T17:58:53.425Z,6.37
2018-11-29T18:04:12.043Z,5.40
2018-11-29T18:09:30.562Z,6.00
2018-11-29T18:14:49.123Z,6.37
2018-11-29T18:20:09.924Z,6.97
2018-11-29T18:25:29.405Z,6.67
2018-11-29T18:30:47.902Z,6.73
2018-11-29T18:36:07.193Z,7.03
2018-11-29T18:41:25.955Z,6.90
2018-11-29T18:46:44.542Z,6.77
2018-11-29T18:52:03.046Z,6.60
2018-11-29T18:57:21.621Z,7.10
2018-11-29T19:02:40.200Z,6.40
2018-11-29T19:07:58.705Z,6.10
2018-11-29T19:13:17.355Z,6.10
2018-11-29T19:18:36.138Z,6.37
2018-11-29T19:23:54.679Z,5.90
2018-11-29T19:29:13.746Z,5.57
2018-11-29T19:34:32.298Z,5.37
2018-11-29T19:39:50.936Z,6.07
2018-11-29T19:45:12.010Z,6.23
2018-11-29T19:50:31.439Z,4.87
2018-11-29T19:55:51.537Z,5.57
2018-11-29T20:01:10.350Z,5.30
2018-11-29T20:06:29.847Z,4.60
2018-11-29T20:11:48.379Z,5.47
2018-11-29T20:17:07.162Z,5.80
2018-11-29T20:22:26.509Z,5.57
2018-11-29T20:27:45.338Z,5.47
2018-11-29T20:33:03.884Z,5.37
2018-11-29T20:38:22.361Z,5.23
2018-11-29T20:43:40.942Z,4.93
2018-11-29T20:48:59.588Z,5.73
2018-11-29T20:54:18.339Z,5.60
2018-11-29T20:59:37.106Z,5.07
2018-11-29T21:04:56.463Z,5.40
2018-11-29T21:10:21.792Z,6.23
2018-11-29T21:15:41.809Z,5.97
2018-11-29T21:21:00.394Z,5.57
2018-11-29T21:26:18.999Z,5.37
2018-11-29T21:31:39.025Z,6.23
2018-11-29T21:36:58.297Z,5.93
2018-11-29T21:42:16.801Z,5.97
2018-11-29T21:47:35.353Z,5.90
2018-11-29T21:52:53.876Z,5.83
2018-11-29T21:58:13.182Z,6.10
2018-11-29T22:03:31.692Z,5.60
2018-11-29T22:08:50.981Z,4.97
2018-11-29T22:14:09.513Z,4.90
2018-11-29T22:19:27.993Z,4.72
2018-11-29T22:24:46.557Z,5.20
2018-11-29T22:30:07.227Z,5.30
2018-11-29T22:35:25.743Z,5.28
2018-11-29T22:40:45.068Z,4.63
2018-11-29T22:46:03.737Z,4.87
2018-11-29T22:51:22.253Z,4.93
2018-11-29T22:56:41.403Z,4.60
2018-11-29T23:01:59.901Z,4.97
2018-11-29T23:07:18.583Z,5.03
2018-11-29T23:12:37.154Z,5.07
2018-11-29T23:17:55.698Z,4.70
2018-11-29T23:23:14.912Z,5.10
2018-11-29T23:28:33.937Z,4.97
2018-11-29T23:33:52.489Z,4.77
2018-11-29T23:39:11.078Z,4.57
2018-11-29T23:44:29.670Z,5.27
2018-11-29T23:49:48.245Z,5.10
2018-11-29T23:55:08.753Z,5.17
